BMC weather

Brigham City Regional Airport
Brigham City, Utah, United States

Public forecast

Using degrees Fahrenheit for public forecast. Weather courtesy of forecast.io.

METAR (pilot weather report)

Retrieved 2019/05/20 02:35 UTC (16 minutes ago):

KBMC 200235Z AUTO 18017G23KT 10SM SCT049 OVC055 11/04 A2964 RMK AO1 T01100041

TAF (pilot weather forecast)

Forecast is more than 12 hours old.

Closest forecast is Logan-Cache Airport, 17.2 nm (31.8 km) NNE. Retrieved 2019/05/19 00:22 UTC (1 day ago):

TAF KLGU 192320Z 2000/2024 20010KT P6SM -SHRA SCT020 BKN040 FM200400 16007KT P6SM VCSH SCT040 BKN080 FM201900 21007KT P6SM VCSH SCT030 BKN060